createdAt,value
2022-12-04T00:03:58.976Z,1.90
2022-12-04T00:08:51.284Z,1.85
2022-12-04T00:13:43.677Z,2.20
2022-12-04T00:18:35.785Z,3.22
2022-12-04T00:23:27.458Z,3.08
2022-12-04T00:28:19.444Z,3.67
2022-12-04T00:33:12.631Z,1.60
2022-12-04T00:38:04.369Z,1.88
2022-12-04T00:42:56.121Z,5.95
2022-12-04T00:47:47.815Z,5.35
2022-12-04T00:52:39.775Z,3.30
2022-12-04T00:57:31.706Z,6.10
2022-12-04T01:02:23.397Z,4.13
2022-12-04T01:07:15.155Z,4.40
2022-12-04T01:12:06.989Z,5.57
2022-12-04T01:16:58.876Z,3.65
2022-12-04T01:21:50.867Z,4.05
2022-12-04T01:26:42.669Z,3.22
2022-12-04T01:31:34.608Z,5.05
2022-12-04T01:36:28.600Z,2.83
2022-12-04T01:41:24.843Z,4.95
2022-12-04T01:46:16.593Z,3.45
2022-12-04T01:51:15.402Z,3.65
2022-12-04T01:56:07.965Z,5.43
2022-12-04T02:01:08.221Z,3.38
2022-12-04T02:06:00.682Z,3.92
2022-12-04T02:11:07.535Z,6.32
2022-12-04T02:15:59.176Z,2.50
2022-12-04T02:21:12.807Z,4.70
2022-12-04T02:26:28.490Z,2.97
2022-12-04T02:31:31.047Z,6.82
2022-12-04T02:36:25.840Z,5.25
2022-12-04T02:41:23.427Z,3.08
2022-12-04T02:46:24.325Z,6.22
2022-12-04T02:51:19.640Z,3.63
2022-12-04T02:56:15.792Z,5.60
2022-12-04T03:01:32.346Z,4.75
2022-12-04T03:06:27.987Z,4.22
2022-12-04T03:11:19.807Z,4.55
2022-12-04T03:16:21.168Z,6.88
2022-12-04T03:21:19.441Z,6.05
2022-12-04T03:26:21.353Z,3.28
2022-12-04T03:31:15.384Z,6.15
2022-12-04T03:36:32.669Z,3.08
2022-12-04T03:41:31.446Z,5.05
2022-12-04T03:46:23.106Z,3.30
2022-12-04T03:51:23.612Z,5.18
2022-12-04T03:56:22.154Z,4.60
2022-12-04T04:01:18.232Z,4.45
2022-12-04T04:06:19.686Z,5.10
2022-12-04T04:11:20.258Z,4.05
2022-12-04T04:16:34.988Z,4.15
2022-12-04T04:21:56.074Z,4.57
2022-12-04T04:26:49.536Z,4.53
2022-12-04T04:32:03.663Z,3.22
2022-12-04T04:37:10.164Z,6.10
2022-12-04T04:42:15.277Z,6.18
2022-12-04T04:47:13.114Z,6.90
2022-12-04T04:52:05.069Z,6.32
2022-12-04T04:56:56.979Z,5.53
2022-12-04T05:01:48.966Z,5.82
2022-12-04T05:06:40.813Z,4.20
2022-12-04T05:11:32.742Z,5.50
2022-12-04T05:16:24.607Z,5.13
2022-12-04T05:21:16.605Z,5.35
2022-12-04T05:26:08.626Z,4.80
2022-12-04T05:31:03.074Z,6.53
2022-12-04T05:35:58.734Z,3.92
2022-12-04T05:40:50.390Z,5.38
2022-12-04T05:45:42.131Z,4.05
2022-12-04T05:50:33.856Z,3.55
2022-12-04T05:55:25.586Z,2.53
2022-12-04T06:00:18.216Z,2.85
2022-12-04T06:05:09.962Z,3.42
2022-12-04T06:10:01.760Z,2.95
2022-12-04T06:14:53.527Z,2.20
2022-12-04T06:19:45.154Z,3.45
2022-12-04T06:24:37.013Z,2.20
2022-12-04T06:29:28.745Z,2.05
2022-12-04T06:34:20.601Z,1.75
2022-12-04T06:39:18.354Z,3.13
2022-12-04T06:44:10.487Z,1.85
2022-12-04T06:49:02.829Z,2.28
2022-12-04T06:53:54.942Z,1.67
2022-12-04T06:58:51.913Z,1.67
2022-12-04T07:03:49.514Z,1.70
2022-12-04T07:08:44.797Z,1.77
2022-12-04T07:13:36.849Z,1.80
2022-12-04T07:18:29.947Z,1.58
2022-12-04T07:23:21.663Z,2.00
2022-12-04T07:28:13.418Z,2.20
2022-12-04T07:33:05.316Z,2.30
2022-12-04T07:37:57.283Z,2.35
2022-12-04T07:42:49.108Z,2.50
2022-12-04T07:47:40.939Z,2.55
2022-12-04T07:52:37.462Z,3.45
2022-12-04T07:57:29.251Z,3.80
2022-12-04T08:02:21.003Z,2.78
2022-12-04T08:07:12.740Z,3.13
2022-12-04T08:12:04.532Z,2.95
2022-12-04T08:16:56.378Z,2.97
2022-12-04T08:21:48.211Z,3.35
2022-12-04T08:26:40.031Z,3.08
2022-12-04T08:31:33.939Z,2.20
2022-12-04T08:36:26.774Z,2.90
2022-12-04T08:41:21.582Z,3.08
2022-12-04T08:46:16.318Z,2.95
2022-12-04T08:51:12.599Z,2.63
2022-12-04T08:56:05.096Z,2.80
2022-12-04T09:00:57.080Z,3.85
2022-12-04T09:05:49.086Z,2.53
2022-12-04T09:10:41.246Z,3.35
2022-12-04T09:15:33.425Z,2.65
2022-12-04T09:20:25.745Z,4.30
2022-12-04T09:25:17.508Z,3.88
2022-12-04T09:30:11.436Z,3.33
2022-12-04T09:35:04.119Z,3.95
2022-12-04T09:39:56.023Z,3.83
2022-12-04T09:44:59.130Z,5.18
2022-12-04T09:49:57.137Z,6.07
2022-12-04T09:54:51.062Z,6.75
2022-12-04T09:59:44.564Z,8.80
2022-12-04T10:04:36.484Z,5.43
2022-12-04T10:09:39.263Z,9.00
2022-12-04T10:14:34.153Z,10.07
2022-12-04T10:19:28.800Z,10.82
2022-12-04T10:24:59.334Z,14.25
2022-12-04T10:29:59.433Z,9.50
2022-12-04T10:34:55.235Z,11.75
2022-12-04T10:39:55.178Z,11.88
2022-12-04T10:44:47.263Z,12.25
2022-12-04T10:49:39.024Z,16.02
2022-12-04T10:54:55.410Z,21.52
2022-12-04T10:59:55.779Z,16.02
2022-12-04T11:05:01.916Z,15.13
2022-12-04T11:09:59.572Z,15.43
2022-12-04T11:15:06.442Z,17.33
2022-12-04T11:20:26.439Z,19.48
2022-12-04T11:25:20.167Z,15.80
2022-12-04T11:30:16.582Z,15.52
2022-12-04T11:35:29.664Z,12.98
2022-12-04T11:40:22.179Z,15.43
2022-12-04T11:45:22.145Z,19.80
2022-12-04T11:50:30.767Z,20.70
2022-12-04T12:00:23.195Z,13.05
2022-12-04T12:05:27.624Z,18.67
2022-12-04T12:10:25.575Z,19.23
2022-12-04T12:15:20.114Z,15.80
2022-12-04T12:20:22.672Z,16.40
2022-12-04T12:25:43.414Z,20.27
2022-12-04T12:30:58.124Z,12.23
2022-12-04T12:36:03.638Z,14.73
2022-12-04T12:41:04.531Z,13.13
2022-12-04T12:46:06.759Z,12.93
2022-12-04T12:51:29.618Z,11.20
2022-12-04T12:56:31.669Z,10.65
2022-12-04T13:01:29.646Z,10.05
2022-12-04T13:06:29.759Z,11.45
2022-12-04T13:11:25.732Z,10.65
2022-12-04T13:16:58.845Z,13.70
2022-12-04T13:21:53.513Z,9.05
2022-12-04T13:27:03.728Z,10.65
2022-12-04T13:32:04.735Z,11.43
2022-12-04T13:37:29.439Z,6.95
2022-12-04T13:42:25.432Z,11.38
2022-12-04T13:47:32.046Z,14.38
2022-12-04T13:52:36.784Z,10.13
2022-12-04T13:57:28.547Z,15.70
2022-12-04T14:02:32.319Z,10.65
2022-12-04T14:07:37.467Z,11.27
2022-12-04T14:12:40.583Z,9.52
2022-12-04T14:17:35.831Z,11.95
2022-12-04T14:22:42.969Z,14.18
2022-12-04T14:27:44.494Z,14.35
2022-12-04T14:32:36.271Z,8.98
2022-12-04T14:37:36.111Z,10.75
2022-12-04T14:42:33.996Z,10.63
2022-12-04T14:47:33.936Z,17.27
2022-12-04T14:52:36.511Z,9.95
2022-12-04T14:57:31.168Z,15.68
2022-12-04T15:02:38.816Z,10.55
2022-12-04T15:07:32.307Z,9.37
2022-12-04T15:12:34.483Z,8.57
2022-12-04T15:17:26.363Z,6.35
2022-12-04T15:22:23.244Z,8.23
2022-12-04T15:27:18.999Z,11.60
2022-12-04T15:32:12.370Z,10.65
2022-12-04T15:37:16.214Z,6.65
2022-12-04T15:42:26.041Z,8.15
2022-12-04T15:47:25.303Z,7.72
2022-12-04T15:52:20.155Z,6.32
2022-12-04T15:57:47.552Z,6.57
2022-12-04T16:02:42.577Z,7.75
2022-12-04T16:07:34.309Z,5.40
2022-12-04T16:12:28.637Z,7.20
2022-12-04T16:17:21.675Z,8.00
2022-12-04T16:22:20.098Z,9.23
2022-12-04T16:27:16.098Z,6.00
2022-12-04T16:32:15.850Z,8.30
2022-12-04T16:37:15.955Z,5.03
2022-12-04T16:42:16.150Z,5.95
2022-12-04T16:47:10.964Z,6.18
2022-12-04T16:52:02.787Z,6.22
2022-12-04T16:56:54.443Z,8.20
2022-12-04T17:01:48.932Z,7.20
2022-12-04T17:06:40.672Z,7.75
2022-12-04T17:11:32.578Z,7.47
2022-12-04T17:16:25.219Z,9.65
2022-12-04T17:21:17.578Z,7.75
2022-12-04T17:26:12.187Z,7.78
2022-12-04T17:31:06.278Z,7.20
2022-12-04T17:36:00.444Z,9.75
2022-12-04T17:41:02.769Z,10.57
2022-12-04T17:45:54.476Z,18.00
2022-12-04T17:50:46.181Z,9.13
2022-12-04T17:55:37.827Z,6.85
2022-12-04T18:00:29.671Z,9.18
2022-12-04T18:05:21.853Z,7.75
2022-12-04T18:10:13.516Z,9.52
2022-12-04T18:15:06.007Z,9.77
2022-12-04T18:20:02.592Z,11.40
2022-12-04T18:24:56.213Z,15.07
2022-12-04T18:29:47.862Z,11.93
2022-12-04T18:34:39.792Z,10.65
2022-12-04T18:39:31.511Z,12.38
2022-12-04T18:44:23.933Z,13.52
2022-12-04T18:49:15.737Z,15.43
2022-12-04T18:54:13.267Z,13.30
2022-12-04T18:59:11.652Z,12.00
2022-12-04T19:08:59.883Z,13.95
2022-12-04T19:13:51.604Z,14.48
2022-12-04T19:18:47.771Z,12.30
2022-12-04T19:23:39.814Z,16.23
2022-12-04T19:28:31.653Z,12.18
2022-12-04T19:33:24.911Z,14.93
2022-12-04T19:38:16.767Z,10.00
2022-12-04T19:43:08.604Z,10.10
2022-12-04T19:48:00.433Z,12.32
2022-12-04T19:52:52.231Z,10.98
2022-12-04T19:57:43.891Z,7.75
2022-12-04T20:02:35.698Z,7.47
2022-12-04T20:07:27.467Z,6.53
2022-12-04T20:12:19.305Z,7.03
2022-12-04T20:17:11.189Z,6.60
2022-12-04T20:22:02.863Z,6.72
2022-12-04T20:26:54.528Z,6.50
2022-12-04T20:31:46.836Z,6.80
2022-12-04T20:36:41.368Z,9.30
2022-12-04T20:41:33.627Z,6.40
2022-12-04T20:46:33.089Z,9.07
2022-12-04T20:51:28.017Z,6.40
2022-12-04T20:56:21.893Z,9.70
2022-12-04T21:01:16.858Z,7.93
2022-12-04T21:06:19.271Z,6.03
2022-12-04T21:11:11.014Z,10.00
2022-12-04T21:16:03.548Z,7.95
2022-12-04T21:20:56.766Z,9.60
2022-12-04T21:25:48.432Z,9.55
2022-12-04T21:30:40.147Z,8.45
2022-12-04T21:35:31.924Z,8.30
2022-12-04T21:40:23.650Z,9.40
2022-12-04T21:45:15.539Z,8.32
2022-12-04T21:50:07.971Z,8.57
2022-12-04T21:54:59.781Z,8.18
2022-12-04T21:59:52.503Z,7.82
2022-12-04T22:04:44.284Z,9.98
2022-12-04T22:09:37.966Z,8.07
2022-12-04T22:14:29.647Z,10.20
2022-12-04T22:19:21.824Z,12.00
2022-12-04T22:24:13.619Z,14.73
2022-12-04T22:29:33.740Z,10.88
2022-12-04T22:34:17.888Z,9.82
2022-12-04T22:39:10.751Z,9.13
2022-12-04T22:44:03.176Z,9.55
2022-12-04T22:48:54.890Z,5.95
2022-12-04T22:53:54.759Z,7.22
2022-12-04T22:58:46.565Z,6.57
2022-12-04T23:03:38.343Z,6.05
2022-12-04T23:08:30.190Z,6.50
2022-12-04T23:13:21.956Z,9.75
2022-12-04T23:18:13.688Z,7.53
2022-12-04T23:23:05.466Z,5.63
2022-12-04T23:27:57.235Z,7.22
2022-12-04T23:32:48.849Z,6.45
2022-12-04T23:37:40.732Z,7.60
2022-12-04T23:42:33.566Z,6.97
2022-12-04T23:47:25.496Z,7.45
2022-12-04T23:52:17.270Z,8.43
2022-12-04T23:57:09.017Z,6.38
